Terminal Aerodrome Forecast
Issued by NWS Springfield, MO

Home | Current Version | Previous Version | Text Only | Print | Product List | Glossary On
Versions: 1 2 3 4 5 6 7 8 9 10 11 12 13 14 15 16 17 18 19
000
FTUS43 KSGF 240100 AAA
TAFSGF
TAF AMD
KSGF 240136Z 2402/2424 14015KT P6SM VCSH OVC060
     FM240300 14016KT P6SM VCTS SCT020CB OVC040
      TEMPO 2403/2406 5SM -TSRA
     FM240600 15015KT 6SM -SHRA VCTS OVC030CB WS020/16040KT
     FM241200 16014KT 4SM -RA BR VCTS OVC015CB
     FM241800 16014G22KT P6SM VCTS OVC025CB
      TEMPO 2418/2422 5SM -TSRA=

USA.gov is the U.S. government's official web portal to all federal, state and local government web resources and services.